Time;durP1;ratioP1;P1;durP2;ratioP2;P2;SDS_P1;SDS_P2;PMS_P1;PMS_P2;Temp;Humidity;BMP_temperature;BMP_pressure;BME280_temperature;BME280_humidity;BME280_pressure;Samples;Min_cycle;Max_cycle;Signal;HPM_P1;HPM_P2
2022/11/20 00:01:35;;;;;;;21.10;14.97;;;-2.70;99.90;;;-141.84;76.81;18726.69;5034038;28;20235;-62
2022/11/20 00:04:03;;;;;;;19.77;15.20;;;-2.70;99.90;;;-141.84;77.02;18716.53;5034290;28;20240;-61
2022/11/20 00:06:31;;;;;;;21.53;15.10;;;-2.70;99.90;;;-141.84;76.88;18690.09;5033816;28;20211;-62
2022/11/20 00:09:01;;;;;;;19.57;14.13;;;-2.70;99.90;;;-141.84;76.70;18698.22;5034225;28;20221;-60
2022/11/20 00:11:33;;;;;;;20.37;14.10;;;-2.70;99.90;;;-141.84;77.18;18696.19;5033724;28;20234;-61
2022/11/20 00:14:04;;;;;;;20.07;13.47;;;-2.80;99.90;;;-141.84;77.64;18698.22;5033461;28;20240;-61
2022/11/20 00:16:33;;;;;;;20.27;14.90;;;-2.80;99.90;;;-141.84;77.97;18702.28;5033444;28;20238;-60
2022/11/20 00:19:01;;;;;;;22.40;15.37;;;-2.80;99.90;;;-141.84;77.63;18688.06;5033437;28;20704;-61
2022/11/20 00:21:30;;;;;;;21.63;14.97;;;-2.90;99.90;;;-141.84;78.07;18714.50;5034052;28;20209;-61
2022/11/20 00:24:00;;;;;;;21.03;14.67;;;-2.90;99.90;;;-141.84;78.26;18704.31;5053627;28;20223;-61
2022/11/20 00:26:29;;;;;;;21.97;14.53;;;-2.90;99.90;;;-141.84;78.43;18708.41;5053491;28;20239;-61
2022/11/20 00:29:01;;;;;;;20.50;14.57;;;-2.90;99.90;;;-141.84;78.30;18724.66;5053184;28;20235;-61
2022/11/20 00:31:32;;;;;;;22.73;14.50;;;-2.90;99.90;;;-141.84;78.61;18675.88;5053537;28;20561;-61
2022/11/20 00:34:01;;;;;;;22.27;15.73;;;-3.00;99.90;;;-141.84;78.75;18681.97;5052922;28;20238;-62
2022/11/20 00:36:34;;;;;;;22.33;15.73;;;-3.00;99.90;;;-141.84;78.84;18688.06;5053426;28;20208;-59
2022/11/20 00:39:03;;;;;;;23.47;16.67;;;-3.00;99.90;;;-141.84;78.73;18671.81;5052992;28;20687;-60
2022/11/20 00:41:31;;;;;;;22.60;16.17;;;-3.00;99.90;;;-141.84;78.95;18706.38;5036264;28;20233;-60
2022/11/20 00:43:59;;;;;;;22.90;17.37;;;-3.00;99.90;;;-141.84;78.92;18653.53;5032899;28;20236;-60
2022/11/20 00:46:30;;;;;;;21.43;15.10;;;-3.00;99.90;;;-141.84;78.55;18769.34;5033032;28;20228;-62
2022/11/20 00:48:59;;;;;;;21.80;15.00;;;-3.00;99.90;;;-141.84;78.48;18667.75;5033133;28;20228;-61
2022/11/20 00:51:28;;;;;;;22.93;15.27;;;-3.00;99.90;;;-141.84;78.70;18671.81;5033600;28;20593;-60
2022/11/20 00:53:59;;;;;;;21.57;14.20;;;-3.00;99.90;;;-141.84;78.75;18692.13;5033196;28;20217;-60
2022/11/20 00:56:28;;;;;;;21.47;13.93;;;-3.00;99.90;;;-141.84;79.08;18684.00;5031998;28;20270;-60
2022/11/20 00:58:56;;;;;;;21.67;13.83;;;-3.10;99.90;;;-141.84;79.21;18663.69;5032545;28;20238;-62
2022/11/20 01:01:28;;;;;;;21.63;14.47;;;-3.20;99.90;;;-141.84;79.34;18696.19;5032841;28;20232;-61
2022/11/20 01:04:00;;;;;;;21.37;15.43;;;-3.20;99.90;;;-141.84;78.84;18702.28;5032779;28;20266;-61
2022/11/20 01:06:32;;;;;;;22.13;14.60;;;-3.20;99.90;;;-141.84;78.51;18681.97;5033267;28;20192;-60
2022/11/20 01:09:05;;;;;;;23.80;14.97;;;-3.10;99.90;;;-141.84;78.19;18688.06;5052694;28;20230;-61
2022/11/20 01:11:35;;;;;;;24.70;16.23;;;-3.10;99.90;;;-141.84;77.92;18692.13;5052496;28;20232;-61
2022/11/20 01:14:07;;;;;;;22.50;16.63;;;-3.10;99.90;;;-141.84;78.15;18716.53;5051710;28;20660;-60
2022/11/20 01:16:38;;;;;;;24.70;16.97;;;-3.10;99.90;;;-141.84;77.92;18686.03;5052385;28;20622;-61
2022/11/20 01:19:12;;;;;;;22.87;16.90;;;-3.10;99.90;;;-141.84;77.63;18708.41;5052056;28;20232;-61
2022/11/20 01:21:48;;;;;;;22.20;16.30;;;-3.10;99.90;;;-141.84;78.06;18704.31;5052125;28;20628;-60
2022/11/20 01:24:19;;;;;;;21.20;15.33;;;-3.10;99.90;;;-141.84;78.21;18675.88;5052272;28;20503;-60
2022/11/20 01:26:51;;;;;;;21.87;15.97;;;-3.10;99.90;;;-141.84;78.12;18659.63;5052285;28;20615;-64
2022/11/20 01:29:22;;;;;;;22.53;14.50;;;-3.20;99.90;;;-141.84;78.18;18663.69;5051792;28;20236;-64
2022/11/20 01:31:52;;;;;;;22.40;16.00;;;-3.20;99.90;;;-141.84;78.51;18647.44;5052106;28;20233;-64
2022/11/20 01:34:23;;;;;;;20.97;15.40;;;-3.20;99.90;;;-141.84;78.87;18679.94;5051709;28;20612;-65
2022/11/20 01:36:53;;;;;;;21.63;15.97;;;-3.20;99.90;;;-141.84;78.51;18649.47;5052101;28;20691;-66
2022/11/20 01:39:24;;;;;;;23.07;15.93;;;-3.20;99.90;;;-141.84;78.94;18718.56;5052274;28;20282;-65
2022/11/20 01:44:55;;;;;;;21.47;15.03;;;-3.30;99.90;;;-141.84;79.79;18639.31;5051585;28;20246;-64
2022/11/20 01:47:34;;;;;;;22.87;14.97;;;-3.30;99.90;;;-141.84;79.13;18677.91;5051641;28;20236;-65
2022/11/20 01:50:12;;;;;;;21.83;15.03;;;-3.30;99.90;;;-141.84;77.34;18700.25;5051912;28;20282;-64
2022/11/20 01:52:49;;;;;;;20.80;14.17;;;-3.20;99.90;;;-141.84;77.39;18655.56;5051879;28;20228;-64
2022/11/20 01:55:22;;;;;;;22.80;13.73;;;-3.20;99.90;;;-141.84;78.14;18694.16;5051509;28;20224;-64
2022/11/20 01:57:52;;;;;;;21.50;13.53;;;-3.30;99.90;;;-141.84;78.64;18673.84;5051676;28;20231;-64
2022/11/20 02:00:21;;;;;;;21.13;14.03;;;-3.30;99.90;;;-141.84;78.99;18641.34;5051914;28;20224;-65
2022/11/20 02:02:57;;;;;;;21.03;13.50;;;-3.30;99.90;;;-141.84;79.61;18645.41;5051486;28;20579;-64
2022/11/20 02:05:35;;;;;;;20.70;13.80;;;-3.20;99.90;;;-141.84;79.77;18677.91;5051353;28;20231;-65
2022/11/20 02:08:07;;;;;;;21.10;13.50;;;-3.40;99.90;;;-141.84;80.07;18702.28;5051607;28;20232;-64
2022/11/20 02:10:35;;;;;;;19.67;13.80;;;-3.50;99.90;;;-141.84;79.29;18667.75;5051212;28;20602;-64
2022/11/20 02:15:51;;;;;;;20.77;13.40;;;-3.40;99.90;;;-141.84;78.79;18661.66;5051070;28;20231;-66
2022/11/20 02:18:22;;;;;;;19.47;13.03;;;-3.50;99.90;;;-141.84;79.21;18657.59;5051956;28;20235;-64
2022/11/20 02:21:01;;;;;;;20.00;12.73;;;-3.50;99.90;;;-141.84;79.15;18659.63;5051194;28;20235;-65
2022/11/20 02:23:37;;;;;;;20.90;14.07;;;-3.50;99.90;;;-141.84;79.21;18686.03;5051135;28;20707;-64
2022/11/20 02:26:13;;;;;;;21.43;13.90;;;-3.50;99.90;;;-141.84;78.89;18659.63;5051234;28;20262;-65
2022/11/20 02:28:41;;;;;;;20.23;13.67;;;-3.50;99.90;;;-141.84;78.35;18692.13;5051182;28;20233;-64
2022/11/20 02:31:09;;;;;;;22.17;13.93;;;-3.50;99.90;;;-141.84;77.33;18684.00;5051539;28;20234;-64
2022/11/20 02:33:37;;;;;;;20.77;13.07;;;-3.40;99.90;;;-141.84;77.53;18677.91;5051065;28;20672;-64
2022/11/20 02:36:09;;;;;;;21.70;13.80;;;-3.50;99.90;;;-141.84;78.21;18686.03;5052151;28;20211;-64
2022/11/20 02:38:37;;;;;;;21.80;13.87;;;-3.50;99.90;;;-141.84;78.78;18684.00;5051175;28;20293;-63
2022/11/20 02:41:06;;;;;;;17.70;12.60;;;-3.50;99.90;;;-141.84;78.75;18641.34;5051210;28;20231;-64
2022/11/20 02:43:35;;;;;;;21.63;14.00;;;-3.50;99.90;;;-141.84;78.82;18665.72;5051166;28;20223;-64
2022/11/20 02:46:03;;;;;;;24.30;14.07;;;-3.50;99.90;;;-141.84;79.33;18669.78;5051021;28;20774;-64
2022/11/20 02:48:31;;;;;;;23.57;14.40;;;-3.50;99.90;;;-141.84;79.33;18690.09;5050978;28;20235;-64
2022/11/20 02:51:01;;;;;;;24.67;14.50;;;-3.50;99.90;;;-141.84;78.70;18710.44;5051398;28;20226;-65
2022/11/20 02:53:29;;;;;;;22.20;14.60;;;-3.50;99.90;;;-141.84;78.82;18708.41;5050952;28;20601;-63
2022/11/20 02:55:57;;;;;;;21.93;13.70;;;-3.40;99.90;;;-141.84;78.87;18657.59;5050500;28;20239;-64
2022/11/20 02:58:27;;;;;;;20.37;13.63;;;-3.50;99.90;;;-141.84;79.65;18655.56;5050187;28;20231;-64
2022/11/20 03:00:55;;;;;;;23.33;14.30;;;-3.50;99.90;;;-141.84;79.95;18686.03;5049919;28;20387;-65
2022/11/20 03:03:23;;;;;;;21.00;13.90;;;-3.40;99.90;;;-141.84;80.32;18694.16;5050330;28;20198;-65
2022/11/20 03:05:51;;;;;;;22.70;14.73;;;-3.50;99.90;;;-141.84;80.58;18684.00;5049883;28;20742;-64
2022/11/20 03:08:20;;;;;;;22.33;14.37;;;-3.50;99.90;;;-141.84;80.62;18704.31;5049693;28;20222;-64
2022/11/20 03:10:48;;;;;;;21.37;14.83;;;-3.50;99.90;;;-141.84;80.51;18677.91;5049365;28;20716;-63
2022/11/20 03:13:16;;;;;;;21.27;13.70;;;-3.50;99.90;;;-141.84;80.44;18669.78;5049799;28;20234;-65
2022/11/20 03:15:45;;;;;;;26.10;15.10;;;-3.50;99.90;;;-141.84;80.65;18633.22;5049767;28;20201;-65
2022/11/20 03:18:14;;;;;;;23.57;15.17;;;-3.50;99.90;;;-141.84;80.45;18679.94;5051136;28;20219;-65
2022/11/20 03:20:42;;;;;;;25.73;14.77;;;-3.40;99.90;;;-141.84;80.92;18647.44;5053371;28;20229;-64
2022/11/20 03:23:10;;;;;;;25.37;15.67;;;-3.50;99.90;;;-141.84;81.14;18649.47;5053503;28;20355;-64
2022/11/20 03:25:38;;;;;;;24.50;15.20;;;-3.60;99.90;;;-141.84;81.46;18645.41;5053407;28;20242;-65
2022/11/20 03:28:07;;;;;;;22.40;14.43;;;-3.50;99.90;;;-141.84;81.68;18651.50;5053394;28;20652;-64
2022/11/20 03:30:35;;;;;;;23.97;15.70;;;-3.60;99.90;;;-141.84;81.61;18688.06;5053280;28;20201;-64
2022/11/20 03:33:05;;;;;;;29.03;16.23;;;-3.60;99.90;;;-141.84;81.00;18671.81;5053890;28;20261;-64
2022/11/20 03:35:33;;;;;;;27.13;15.40;;;-3.40;99.90;;;-141.84;80.94;18684.00;5053196;28;20291;-63
2022/11/20 03:38:01;;;;;;;29.57;15.50;;;-3.50;99.90;;;-141.84;81.53;18667.75;5053388;28;20238;-64
2022/11/20 03:40:29;;;;;;;24.80;14.50;;;-3.60;99.90;;;-141.84;81.81;18653.53;5052742;28;20233;-64
2022/11/20 03:42:57;;;;;;;21.50;15.20;;;-3.60;99.90;;;-141.84;82.29;18661.66;5053194;28;20363;-64
2022/11/20 03:45:25;;;;;;;25.07;15.23;;;-3.60;99.90;;;-141.84;82.45;18649.47;5053995;28;20621;-65
2022/11/20 03:47:54;;;;;;;27.40;14.70;;;-3.60;99.90;;;-141.84;81.96;18643.38;5052923;28;20234;-63
2022/11/20 03:50:23;;;;;;;23.63;15.57;;;-3.50;99.90;;;-141.84;81.15;18653.53;5052875;28;20728;-64
2022/11/20 03:52:51;;;;;;;27.23;16.57;;;-3.50;99.90;;;-141.84;81.19;18655.56;5053257;28;20235;-65
2022/11/20 03:55:20;;;;;;;24.17;14.90;;;-3.60;99.90;;;-141.84;80.36;18667.75;5052902;28;20226;-64
2022/11/20 03:57:48;;;;;;;22.53;15.87;;;-3.50;99.90;;;-141.84;80.39;18669.78;5052908;28;20211;-64
2022/11/20 04:00:17;;;;;;;25.17;15.53;;;-3.50;99.90;;;-141.84;80.92;18663.69;5052900;28;20234;-64
2022/11/20 04:02:45;;;;;;;30.17;16.73;;;-3.60;99.90;;;-141.84;80.78;18651.50;5053004;28;20279;-65
2022/11/20 04:05:13;;;;;;;27.30;16.17;;;-3.60;99.90;;;-141.84;80.28;18651.50;5052660;28;20276;-65
2022/11/20 04:07:42;;;;;;;27.43;16.63;;;-3.60;99.90;;;-141.84;79.93;18690.09;5052855;28;20226;-65
2022/11/20 04:10:11;;;;;;;27.17;16.60;;;-3.50;99.90;;;-141.84;79.19;18637.28;5052612;28;20240;-63
2022/11/20 04:12:39;;;;;;;28.13;16.47;;;-3.50;99.90;;;-141.84;79.26;18671.81;5052817;28;20256;-65
2022/11/20 04:15:08;;;;;;;25.40;16.00;;;-3.50;99.90;;;-141.84;79.65;18686.03;5052921;28;20204;-64
2022/11/20 04:17:36;;;;;;;29.07;16.70;;;-3.60;99.90;;;-141.84;79.77;18669.78;5052422;28;20234;-65
2022/11/20 04:20:06;;;;;;;28.47;16.53;;;-3.50;99.90;;;-141.84;80.16;18657.59;5052642;28;20232;-59
2022/11/20 04:22:34;;;;;;;26.97;16.33;;;-3.60;99.90;;;-141.84;80.66;18661.66;5052477;28;20229;-61
2022/11/20 04:25:04;;;;;;;32.07;17.13;;;-3.70;99.90;;;-141.84;81.04;18661.66;5052159;28;20234;-61
2022/11/20 04:27:32;;;;;;;28.60;17.03;;;-3.70;99.90;;;-141.84;81.40;18643.38;5052558;28;20222;-60
2022/11/20 04:30:01;;;;;;;29.90;17.07;;;-3.70;99.90;;;-141.84;81.87;18667.75;5052627;28;20204;-61
2022/11/20 04:32:29;;;;;;;27.30;17.03;;;-3.80;99.90;;;-141.84;82.07;18665.72;5052084;28;20234;-60
2022/11/20 04:34:57;;;;;;;27.90;17.13;;;-3.80;99.90;;;-141.84;81.98;18665.72;5052190;28;20222;-60
2022/11/20 04:37:25;;;;;;;31.07;17.47;;;-3.80;99.90;;;-141.84;81.29;18657.59;5052235;28;20224;-61
2022/11/20 04:39:53;;;;;;;25.60;16.37;;;-3.80;99.90;;;-141.84;79.98;18657.59;5052117;28;20284;-61
2022/11/20 04:42:29;;;;;;;30.13;17.10;;;-3.70;99.90;;;-141.84;79.54;18633.22;5052594;28;20220;-59
2022/11/20 04:44:57;;;;;;;24.47;15.97;;;-3.70;99.90;;;-141.84;79.28;18688.06;5052104;28;20557;-60
2022/11/20 04:47:26;;;;;;;27.37;16.47;;;-3.60;99.90;;;-141.84;79.38;18673.84;5051855;28;20240;-61
2022/11/20 04:49:54;;;;;;;26.03;16.33;;;-3.70;99.90;;;-141.84;79.73;18675.88;5051993;28;20227;-61
2022/11/20 04:52:22;;;;;;;28.63;17.07;;;-3.80;99.90;;;-141.84;79.98;18663.69;5051947;28;20231;-61
2022/11/20 04:54:52;;;;;;;27.97;17.67;;;-3.70;99.90;;;-141.84;80.44;18653.53;5051830;28;20718;-60
2022/11/20 04:57:22;;;;;;;29.50;17.90;;;-3.80;99.90;;;-141.84;80.90;18655.56;5052413;28;20201;-61
2022/11/20 04:59:50;;;;;;;29.30;18.03;;;-3.80;99.90;;;-141.84;80.80;18649.47;5051591;28;20228;-62
2022/11/20 05:02:18;;;;;;;27.70;17.70;;;-3.80;99.90;;;-141.84;80.39;18667.75;5051850;28;20223;-61
2022/11/20 05:04:46;;;;;;;27.13;16.40;;;-3.80;99.90;;;-141.84;80.50;18655.56;5051791;28;20223;-61
2022/11/20 05:07:15;;;;;;;29.10;16.60;;;-3.80;99.90;;;-141.84;80.23;18669.78;5051563;28;20280;-61
2022/11/20 05:09:43;;;;;;;26.93;16.23;;;-3.80;99.90;;;-141.84;79.78;18647.44;5051347;28;20211;-61
2022/11/20 05:12:11;;;;;;;27.33;16.03;;;-3.80;99.90;;;-141.84;79.99;18681.97;5052197;28;20613;-60
2022/11/20 05:14:41;;;;;;;26.90;17.27;;;-3.70;99.90;;;-141.84;80.00;18663.69;5051308;28;20227;-60
2022/11/20 05:17:12;;;;;;;29.93;16.97;;;-3.70;99.90;;;-141.84;79.48;18667.75;5051577;28;20256;-60
2022/11/20 05:19:40;;;;;;;27.37;16.90;;;-3.80;99.90;;;-141.84;78.92;18600.72;5051467;28;20231;-60
2022/11/20 05:22:08;;;;;;;27.47;16.63;;;-3.80;99.90;;;-141.84;79.29;18659.63;5051313;28;20227;-61
2022/11/20 05:24:36;;;;;;;28.87;16.40;;;-3.80;99.90;;;-141.84;78.75;18686.03;5051571;28;20253;-61
2022/11/20 05:27:04;;;;;;;27.60;16.00;;;-3.80;99.90;;;-141.84;78.37;18621.03;5051705;28;20581;-61
2022/11/20 05:29:33;;;;;;;25.87;16.23;;;-3.80;99.90;;;-141.84;78.34;18675.88;5051019;28;20568;-61
2022/11/20 05:32:02;;;;;;;28.17;17.03;;;-3.80;99.90;;;-141.84;78.09;18688.06;5051002;28;20232;-60
2022/11/20 05:34:30;;;;;;;27.53;16.00;;;-3.80;99.90;;;-141.84;78.20;18684.00;5051352;28;20234;-61
2022/11/20 05:36:58;;;;;;;29.10;15.47;;;-3.90;99.90;;;-141.84;78.71;18667.75;5051006;28;20224;-61
2022/11/20 05:39:27;;;;;;;27.60;17.20;;;-4.00;99.90;;;-141.84;78.48;18659.63;5051527;28;20210;-60
2022/11/20 05:44:37;;;;;;;25.97;16.13;;;-3.90;99.90;;;-141.84;77.88;18675.88;5050381;28;20605;-61
2022/11/20 05:47:07;;;;;;;28.30;16.70;;;-3.90;99.90;;;-141.84;78.86;18651.50;5050611;28;20292;-62
2022/11/20 05:49:35;;;;;;;31.70;16.97;;;-4.00;99.90;;;-141.84;79.66;18629.16;5050723;28;20280;-61
2022/11/20 05:52:03;;;;;;;28.30;17.00;;;-4.00;99.90;;;-141.84;79.01;18623.06;5050822;28;20377;-62
2022/11/20 05:54:31;;;;;;;26.77;16.33;;;-4.00;99.90;;;-141.84;79.21;18661.66;5050880;28;20315;-60
2022/11/20 05:57:00;;;;;;;28.23;17.90;;;-4.00;99.90;;;-141.84;79.38;18661.66;5050942;28;20204;-62
2022/11/20 05:59:28;;;;;;;27.67;16.97;;;-4.00;99.90;;;-141.84;79.75;18663.69;5050420;28;20224;-61
2022/11/20 06:01:56;;;;;;;25.47;16.33;;;-4.10;99.90;;;-141.84;80.58;18669.78;5050385;28;20222;-61
2022/11/20 06:04:26;;;;;;;29.23;18.13;;;-4.10;99.90;;;-141.84;80.85;18645.41;5050424;28;20662;-59
2022/11/20 06:06:54;;;;;;;29.93;17.07;;;-4.10;99.90;;;-141.84;80.84;18667.75;5050693;28;20233;-61
2022/11/20 06:09:22;;;;;;;29.10;16.67;;;-4.10;99.90;;;-141.84;80.24;18643.38;5050852;28;20212;-61
2022/11/20 06:11:50;;;;;;;26.33;16.67;;;-4.00;99.90;;;-141.84;80.36;18663.69;5050033;28;20226;-60
2022/11/20 06:14:18;;;;;;;29.60;17.77;;;-4.10;99.90;;;-141.84;80.77;18647.44;5050159;28;20630;-61
2022/11/20 06:16:47;;;;;;;26.97;16.53;;;-4.10;99.90;;;-141.84;80.83;18647.44;5050605;28;20327;-60
2022/11/20 06:19:15;;;;;;;31.47;17.70;;;-4.10;99.90;;;-141.84;80.73;18659.63;5050400;28;20733;-60
2022/11/20 06:21:45;;;;;;;29.73;16.73;;;-4.10;99.90;;;-141.84;80.57;18675.88;5050285;28;20664;-61
2022/11/20 06:24:13;;;;;;;28.97;16.67;;;-4.10;99.90;;;-141.84;81.06;18663.69;5051109;28;20205;-61
2022/11/20 06:26:41;;;;;;;29.97;18.13;;;-4.10;99.90;;;-141.84;81.32;18637.28;5050117;28;20238;-61
2022/11/20 06:29:10;;;;;;;29.27;17.43;;;-4.20;99.90;;;-141.84;81.04;18651.50;5050086;28;20257;-61
2022/11/20 06:31:38;;;;;;;31.10;17.57;;;-4.20;99.90;;;-141.84;80.84;18667.75;5050058;28;20223;-60
2022/11/20 06:34:07;;;;;;;33.50;17.80;;;-4.20;99.90;;;-141.84;80.76;18651.50;5050048;28;20237;-60
2022/11/20 06:36:35;;;;;;;32.13;17.53;;;-4.20;99.90;;;-141.84;81.01;18675.88;5050178;28;20260;-61
2022/11/20 06:39:05;;;;;;;28.00;16.73;;;-4.20;99.90;;;-141.84;81.55;18629.16;5050572;28;20255;-60
2022/11/20 06:41:33;;;;;;;29.90;17.67;;;-4.20;99.90;;;-141.84;81.84;18655.56;5049959;28;20303;-61
2022/11/20 06:44:01;;;;;;;31.50;17.53;;;-4.20;99.90;;;-141.84;80.55;18637.28;5049558;28;20285;-61
2022/11/20 06:46:29;;;;;;;30.90;17.70;;;-4.10;99.90;;;-141.84;79.55;18677.91;5049913;28;20222;-62
2022/11/20 06:48:58;;;;;;;31.53;16.90;;;-3.80;99.90;;;-141.84;79.56;18643.38;5049850;28;20229;-61
2022/11/20 06:51:26;;;;;;;31.73;18.13;;;-4.00;99.90;;;-141.84;79.40;18635.25;5050474;28;20285;-61
2022/11/20 06:53:54;;;;;;;27.03;16.57;;;-4.10;99.90;;;-141.84;79.59;18667.75;5051559;28;20238;-60
2022/11/20 06:56:24;;;;;;;27.20;17.27;;;-4.10;99.90;;;-141.84;79.91;18665.72;5053762;28;20234;-61
2022/11/20 06:58:52;;;;;;;26.50;16.00;;;-4.00;99.90;;;-141.84;79.57;18663.69;5053749;28;20284;-62
2022/11/20 07:01:20;;;;;;;27.27;16.20;;;-4.00;99.90;;;-141.84;78.76;18643.38;5053838;28;20616;-60
2022/11/20 07:03:51;;;;;;;29.60;17.57;;;-3.90;99.90;;;-141.84;79.21;18631.19;5053882;28;20208;-62
2022/11/20 07:06:21;;;;;;;27.20;16.90;;;-3.90;99.90;;;-141.84;78.73;18655.56;5054052;28;20191;-62
2022/11/20 07:08:52;;;;;;;30.10;17.27;;;-3.90;99.90;;;-141.84;78.26;18645.41;5053476;28;20228;-60
2022/11/20 07:11:20;;;;;;;28.30;16.60;;;-3.80;99.90;;;-141.84;78.03;18677.91;5053782;28;20224;-61
2022/11/20 07:13:50;;;;;;;29.67;16.83;;;-3.80;99.90;;;-141.84;77.79;18675.88;5053587;28;20275;-63
2022/11/20 07:16:19;;;;;;;27.50;17.10;;;-3.80;99.90;;;-141.84;78.33;18679.94;5053654;28;20228;-63
2022/11/20 07:18:47;;;;;;;31.93;17.23;;;-3.80;99.90;;;-141.84;78.57;18657.59;5053493;28;20257;-62
2022/11/20 07:21:18;;;;;;;28.80;17.27;;;-3.80;99.90;;;-141.84;78.37;18653.53;5054198;28;20210;-63
2022/11/20 07:23:47;;;;;;;26.23;17.00;;;-3.80;99.90;;;-141.84;78.25;18663.69;5053328;28;20231;-62
2022/11/20 07:26:15;;;;;;;29.90;16.70;;;-3.70;99.90;;;-141.84;78.24;18651.50;5053502;28;20228;-61
2022/11/20 07:28:46;;;;;;;27.97;17.13;;;-3.70;99.90;;;-141.84;78.50;18667.75;5053153;28;20262;-61
2022/11/20 07:31:15;;;;;;;30.07;17.00;;;-3.70;99.90;;;-141.84;78.13;18659.63;5053337;28;20725;-61
2022/11/20 07:33:46;;;;;;;26.60;17.30;;;-3.70;99.90;;;-141.84;77.97;18645.41;5054060;28;20195;-60
2022/11/20 07:36:14;;;;;;;28.13;17.70;;;-3.60;99.90;;;-141.84;77.93;18686.03;5055324;28;20405;-62
2022/11/20 07:38:43;;;;;;;30.53;18.70;;;-3.60;99.90;;;-141.84;77.78;18696.19;5053252;28;20226;-63
2022/11/20 07:41:11;;;;;;;28.83;16.83;;;-3.50;99.90;;;-141.84;78.16;18671.81;5053242;28;20232;-62
2022/11/20 07:43:39;;;;;;;30.77;18.40;;;-3.50;99.90;;;-141.84;77.89;18655.56;5053366;28;20231;-62
2022/11/20 07:46:08;;;;;;;30.67;17.30;;;-3.40;99.90;;;-141.84;77.73;18673.84;5054063;28;20232;-59
2022/11/20 07:48:38;;;;;;;28.73;17.63;;;-3.30;99.90;;;-141.84;77.83;18688.06;5052427;28;20739;-62
2022/11/20 07:51:06;;;;;;;28.63;17.10;;;-3.30;99.90;;;-141.84;76.54;18714.50;5053983;28;20204;-62
2022/11/20 07:53:34;;;;;;;28.57;17.67;;;-3.20;99.90;;;-141.84;76.21;18665.72;5054439;28;20226;-62
2022/11/20 07:56:04;;;;;;;28.03;16.40;;;-3.10;99.90;;;-141.84;75.49;18694.16;5051962;28;20385;-61
2022/11/20 07:58:34;;;;;;;29.97;18.33;;;-3.10;99.90;;;-141.84;75.56;18686.03;5051955;28;20223;-60
2022/11/20 08:01:07;;;;;;;27.67;17.83;;;-3.20;99.90;;;-141.84;75.09;18694.16;5051916;28;20241;-61
2022/11/20 08:03:37;;;;;;;25.47;16.27;;;-3.10;99.90;;;-141.84;74.20;18728.72;5052143;28;20231;-60
2022/11/20 08:06:08;;;;;;;27.70;16.90;;;-3.00;99.90;;;-141.84;74.13;18700.25;5052423;28;20209;-61
2022/11/20 08:08:38;;;;;;;27.37;16.33;;;-3.00;99.90;;;-141.84;73.73;18690.09;5051774;28;20748;-60
2022/11/20 08:14:14;;;;;;;26.30;15.30;;;-2.80;99.90;;;-141.84;73.64;18700.25;5051480;28;20236;-60
2022/11/20 08:16:44;;;;;;;25.47;16.47;;;-2.70;99.90;;;-141.84;73.41;18688.06;5051468;28;20599;-61
2022/11/20 08:19:13;;;;;;;25.30;15.27;;;-2.70;99.90;;;-141.84;72.85;18698.22;5051342;28;20274;-61
2022/11/20 08:21:44;;;;;;;26.57;15.70;;;-2.60;99.90;;;-141.84;72.34;18712.47;5051496;28;20232;-61
2022/11/20 08:24:12;;;;;;;27.17;16.30;;;-2.60;99.90;;;-141.84;72.35;18694.16;5051936;28;20215;-60
2022/11/20 08:26:42;;;;;;;25.07;15.87;;;-2.50;99.90;;;-141.84;71.81;18744.97;5051138;28;20232;-60
2022/11/20 08:29:10;;;;;;;25.43;16.20;;;-2.30;99.90;;;-141.84;70.95;18724.66;5051224;28;20675;-60
2022/11/20 08:31:38;;;;;;;27.83;16.57;;;-2.20;99.90;;;-141.84;70.80;18706.38;5051494;28;20229;-61
2022/11/20 08:34:06;;;;;;;22.77;15.13;;;-2.20;99.90;;;-141.84;69.96;18740.91;5051383;28;20228;-60
2022/11/20 08:36:37;;;;;;;25.43;16.00;;;-2.10;99.90;;;-141.84;70.26;18728.72;5051369;28;20219;-61
2022/11/20 08:39:06;;;;;;;25.03;16.20;;;-2.00;99.90;;;-141.84;69.57;18740.91;5051952;28;20205;-61
2022/11/20 08:41:36;;;;;;;26.43;16.33;;;-1.90;99.90;;;-141.84;68.96;18749.03;5051147;28;20229;-61
2022/11/20 08:44:07;;;;;;;24.17;15.20;;;-1.70;99.90;;;-141.84;68.60;18747.00;5051231;28;20244;-61
2022/11/20 08:46:38;;;;;;;23.90;14.73;;;-1.70;99.90;;;-141.84;68.75;18738.88;5013753;28;1080749;-61
2022/11/20 08:49:08;;;;;;;21.73;14.17;;;-1.70;99.90;;;-141.84;69.04;18749.03;5052459;28;20233;-61
2022/11/20 08:51:38;;;;;;;23.67;14.97;;;-1.80;99.90;;;-141.84;69.44;18728.72;5052090;28;20203;-63
2022/11/20 08:54:08;;;;;;;22.67;14.30;;;-1.70;99.90;;;-141.84;69.96;18738.88;5052747;28;20208;-61
2022/11/20 08:56:37;;;;;;;23.33;14.23;;;-1.70;99.90;;;-141.84;69.56;18763.25;5051658;28;20232;-60
2022/11/20 08:59:05;;;;;;;22.63;13.73;;;-1.70;99.90;;;-141.84;69.04;18763.25;5051820;28;20224;-61
2022/11/20 09:01:53;;;;;;;22.60;14.77;;;-1.60;99.90;;;-141.84;69.31;18751.06;5051516;28;20716;-60
2022/11/20 09:04:21;;;;;;;22.30;14.57;;;-1.60;99.90;;;-141.84;69.36;18773.41;5051623;28;20232;-61
2022/11/20 09:06:50;;;;;;;20.93;14.23;;;-1.50;99.90;;;-141.84;69.25;18757.16;5051834;28;20209;-60
2022/11/20 09:09:20;;;;;;;21.67;14.03;;;-1.50;99.90;;;-141.84;68.73;18732.78;5051814;28;20736;-61
2022/11/20 09:11:49;;;;;;;24.17;15.40;;;-1.50;99.90;;;-141.84;68.96;18777.47;5051397;28;20225;-61
2022/11/20 09:14:17;;;;;;;21.50;13.83;;;-1.30;99.90;;;-141.84;68.71;18775.44;5051464;28;20229;-61
2022/11/20 09:16:46;;;;;;;20.40;13.77;;;-1.20;99.90;;;-141.84;68.41;18769.34;5050939;28;20237;-60
2022/11/20 09:19:14;;;;;;;23.03;14.33;;;-1.00;99.90;;;-141.84;68.22;18740.91;5051230;28;20213;-62
2022/11/20 09:22:02;;;;;;;20.90;13.53;;;-0.90;99.90;;;-141.84;67.04;18761.22;5051126;28;20258;-60
2022/11/20 09:24:32;;;;;;;21.87;14.80;;;-0.90;99.90;;;-141.84;67.35;18761.22;5051677;28;20224;-61
2022/11/20 09:27:04;;;;;;;20.63;13.40;;;-0.90;99.90;;;-141.84;67.43;18742.94;5051131;28;20204;-61
2022/11/20 09:29:32;;;;;;;21.50;14.50;;;-0.80;99.90;;;-141.84;67.53;18836.41;5050081;28;20604;-61
2022/11/20 09:32:00;;;;;;;20.63;13.73;;;-0.80;99.90;;;-141.84;67.76;18773.41;5051182;28;20221;-61
2022/11/20 09:34:28;;;;;;;21.87;13.97;;;-0.90;99.90;;;-141.84;67.54;18789.66;5051051;28;20648;-60
2022/11/20 09:36:56;;;;;;;19.30;13.47;;;-0.80;99.90;;;-141.84;67.16;18787.63;5051405;28;20248;-60
2022/11/20 09:39:30;;;;;;;23.60;14.07;;;-0.80;99.90;;;-141.84;67.39;18799.81;5051628;28;20204;-60
2022/11/20 09:42:21;;;;;;;20.87;12.77;;;-0.70;99.90;;;-141.84;67.52;18767.31;5031354;28;20237;-59
2022/11/20 09:45:13;;;;;;;23.47;13.90;;;-0.60;99.90;;;-141.84;67.12;18797.78;5030889;28;20253;-61
2022/11/20 09:48:04;;;;;;;20.23;13.30;;;-0.60;99.90;;;-141.84;67.24;18783.56;5030809;28;20233;-62
2022/11/20 09:50:44;;;;;;;20.47;13.40;;;-0.60;99.90;;;-141.84;66.97;18822.19;5031032;28;20234;-60
2022/11/20 09:53:23;;;;;;;18.87;13.23;;;-0.50;99.90;;;-141.84;66.38;18797.78;5030602;28;20225;-62
2022/11/20 09:55:52;;;;;;;20.17;13.10;;;-0.40;99.90;;;-141.84;66.53;18789.66;5030442;28;20233;-61
2022/11/20 09:58:32;;;;;;;19.90;13.57;;;-0.50;99.90;;;-141.84;67.00;18797.78;5031104;28;20229;-60
2022/11/20 10:01:11;;;;;;;18.77;13.13;;;-0.40;99.90;;;-141.84;66.29;18828.28;5030900;28;20270;-62
2022/11/20 10:03:53;;;;;;;20.70;13.87;;;-0.30;99.90;;;-141.84;67.03;18818.09;5030838;28;20205;-61
2022/11/20 10:06:31;;;;;;;23.33;14.40;;;-0.40;99.90;;;-141.84;67.08;18818.09;5031976;28;20194;-59
2022/11/20 10:09:15;;;;;;;20.97;14.50;;;-0.40;99.90;;;-141.84;67.11;18834.38;5028651;28;20213;-61
2022/11/20 10:11:57;;;;;;;24.97;15.13;;;-0.30;99.90;;;-141.84;67.16;18814.03;5028610;28;20625;-62
2022/11/20 10:14:43;;;;;;;21.90;15.03;;;-0.30;99.90;;;-141.84;68.01;18789.66;5030593;28;20217;-61
2022/11/20 10:17:24;;;;;;;21.93;14.60;;;-0.30;99.90;;;-141.84;68.62;18789.66;5031174;28;20232;-60